Time;durP1;ratioP1;P1;durP2;ratioP2;P2;SDS_P1;SDS_P2;PMS_P1;PMS_P2;Temp;Humidity;BMP_temperature;BMP_pressure;BME280_temperature;BME280_humidity;BME280_pressure;Samples;Min_cycle;Max_cycle;Signal;HPM_P1;HPM_P2
2020/12/10 00:01:31;;;;;;;;;28.00;20.00;;;;;1.77;53.34;102398.63;4357422;32;8944;-70
2020/12/10 00:04:00;;;;;;;;;20.00;20.00;;;;;1.70;53.80;102403.34;4358726;32;8974;-70
2020/12/10 00:06:55;;;;;;;;;16.33;16.00;;;;;1.85;53.44;102403.75;4357211;32;8951;-71
2020/12/10 00:09:36;;;;;;;;;16.00;14.00;;;;;1.82;53.57;102410.50;4369684;32;8894;-70
2020/12/10 00:12:33;;;;;;;;;13.33;13.00;;;;;2.08;53.18;102416.66;4368560;32;8930;-70
2020/12/10 00:15:28;;;;;;;;;8.67;8.67;;;;;1.64;54.51;102411.38;4357144;33;9059;-71
2020/12/10 00:18:03;;;;;;;;;12.33;10.33;;;;;1.90;54.12;102403.88;4358438;33;8908;-70
2020/12/10 00:20:31;;;;;;;;;5.00;3.33;;;;;1.85;54.47;102414.69;4358699;33;9101;-70
2020/12/10 00:22:59;;;;;;;;;9.67;8.00;;;;;1.52;55.66;102415.91;4358905;33;8958;-70
2020/12/10 00:25:54;;;;;;;;;10.00;9.33;;;;;1.45;56.22;102411.59;4359023;32;8979;-70
2020/12/10 00:28:50;;;;;;;;;14.33;14.33;;;;;1.42;56.67;102410.16;4357187;33;8909;-69
2020/12/10 00:31:46;;;;;;;;;15.00;13.00;;;;;1.76;55.82;102397.78;4356782;32;8964;-69
2020/12/10 00:34:13;;;;;;;;;13.67;13.67;;;;;1.51;56.70;102407.97;4358132;32;9062;-69
2020/12/10 00:36:40;;;;;;;;;10.00;10.00;;;;;1.40;57.40;102404.13;4358539;32;8956;-70
2020/12/10 00:39:17;;;;;;;;;16.67;12.33;;;;;1.80;56.33;102395.44;4361954;32;8897;-70
2020/12/10 00:42:12;;;;;;;;;41.33;27.67;;;;;1.95;55.82;102402.13;4347723;32;8902;-70
2020/12/10 00:44:40;;;;;;;;;16.67;16.00;;;;;1.77;56.27;102401.34;4372898;32;8941;-70
2020/12/10 00:47:07;;;;;;;;;23.00;21.33;;;;;1.51;56.88;102394.34;4375834;32;8891;-70
2020/12/10 00:50:03;;;;;;;;;31.33;17.00;;;;;1.46;56.99;102391.44;4374370;32;8926;-70
2020/12/10 00:52:59;;;;;;;;;26.00;20.00;;;;;1.71;56.41;102394.91;4374606;32;8927;-70
2020/12/10 00:55:56;;;;;;;;;11.67;8.33;;;;;1.53;57.14;102393.03;4375363;32;8904;-70
2020/12/10 00:58:54;;;;;;;;;15.00;14.00;;;;;1.44;57.48;102393.56;4374348;32;8888;-70
2020/12/10 01:01:21;;;;;;;;;11.67;11.67;;;;;1.62;57.08;102380.78;4376483;32;8965;-70
2020/12/10 01:03:49;;;;;;;;;11.00;11.00;;;;;1.74;56.84;102377.25;4375063;32;9561;-70
2020/12/10 01:06:39;;;;;;;;;19.67;15.00;;;;;1.46;57.50;102370.50;4364986;32;8890;-70
2020/12/10 01:09:35;;;;;;;;;11.00;10.00;;;;;1.46;57.66;102372.34;4373521;32;8907;-70
2020/12/10 01:12:06;;;;;;;;;13.33;13.33;;;;;1.56;57.37;102381.69;4375336;32;8898;-70
2020/12/10 01:14:33;;;;;;;;;7.67;7.67;;;;;1.57;57.53;102377.88;4361553;32;8966;-70
2020/12/10 01:17:08;;;;;;;;;12.33;12.33;;;;;1.40;58.46;102374.12;4349344;32;8966;-71
2020/12/10 01:20:04;;;;;;;;;14.33;14.33;;;;;1.65;57.76;102383.03;4359225;32;8910;-70
2020/12/10 01:22:59;;;;;;;;;14.00;13.67;;;;;1.55;58.36;102374.56;4359841;32;8898;-70
2020/12/10 01:25:26;;;;;;;;;16.00;16.00;;;;;1.45;58.44;102379.72;4347452;33;8950;-70
2020/12/10 01:28:16;;;;;;;;;13.67;13.67;;;;;1.30;59.02;102387.44;4360808;32;8892;-70
2020/12/10 01:31:05;;;;;;;;;19.00;19.00;;;;;1.44;58.89;102382.66;4360330;32;8916;-70
2020/12/10 01:33:33;;;;;;;;;8.00;8.00;;;;;1.50;58.58;102384.50;4360138;32;9022;-70
2020/12/10 01:36:01;;;;;;;;;13.00;13.00;;;;;1.52;58.66;102385.91;4373607;32;8976;-70
2020/12/10 01:38:42;;;;;;;;;14.67;14.67;;;;;1.81;57.98;102384.28;4359786;32;8888;-70
2020/12/10 01:41:10;;;;;;;;;9.33;9.33;;;;;1.89;57.69;102392.13;4361286;32;8912;-70
2020/12/10 01:44:13;;;;;;;;;18.33;17.00;;;;;1.89;57.55;102383.13;4359503;32;8925;-70
2020/12/10 01:46:42;;;;;;;;;13.67;13.67;;;;;1.93;57.56;102379.72;4359824;32;9086;-70
2020/12/10 01:49:35;;;;;;;;;10.33;10.33;;;;;1.94;57.46;102381.38;4368750;32;8980;-70
2020/12/10 01:52:04;;;;;;;;;13.67;13.67;;;;;1.90;57.26;102374.69;4376180;32;8930;-70
2020/12/10 01:54:59;;;;;;;;;10.00;10.00;;;;;1.88;57.46;102370.53;4375148;32;8895;-70
2020/12/10 01:57:34;;;;;;;;;10.67;10.67;;;;;1.98;57.06;102375.44;4362217;32;8894;-70
2020/12/10 02:00:04;;;;;;;;;13.67;13.67;;;;;1.58;58.22;102371.38;4374462;32;8886;-70
2020/12/10 02:02:34;;;;;;;;;13.33;13.33;;;;;1.90;57.40;102376.59;4375501;32;8956;-70
2020/12/10 02:05:03;;;;;;;;;10.67;10.67;;;;;1.56;58.36;102383.56;4375794;32;8937;-70
2020/12/10 02:07:38;;;;;;;;;11.00;11.00;;;;;1.62;58.34;102374.47;4362277;32;8931;-70
2020/12/10 02:10:34;;;;;;;;;8.33;8.33;;;;;1.50;58.51;102363.50;4358504;33;9061;-70
2020/12/10 02:13:29;;;;;;;;;12.33;12.33;;;;;1.44;58.93;102369.03;4358448;32;8944;-70
2020/12/10 02:15:58;;;;;;;;;13.00;12.33;;;;;1.30;59.16;102361.03;4360746;32;8904;-70
2020/12/10 02:18:54;;;;;;;;;15.33;13.67;;;;;1.55;58.68;102362.84;4358417;32;8909;-70
2020/12/10 02:21:50;;;;;;;;;10.33;10.33;;;;;1.45;58.87;102357.91;4362500;32;8934;-70
2020/12/10 02:24:45;;;;;;;;;8.33;8.33;;;;;1.28;59.35;102351.41;4363349;32;8900;-70
2020/12/10 02:27:16;;;;;;;;;10.00;10.00;;;;;1.58;58.73;102351.44;4375279;32;8894;-70
2020/12/10 02:30:12;;;;;;;;;14.00;14.00;;;;;1.37;58.99;102359.03;4373498;32;9007;-70
2020/12/10 02:33:10;;;;;;;;;8.33;8.33;;;;;1.42;58.93;102343.91;4373558;32;8911;-70
2020/12/10 02:36:07;;;;;;;;;11.00;8.00;;;;;1.37;58.92;102345.41;4373948;32;8880;-70
2020/12/10 02:38:34;;;;;;;;;12.67;12.67;;;;;1.58;58.28;102346.00;4374068;32;8932;-70
2020/12/10 02:41:02;;;;;;;;;15.67;15.67;;;;;1.42;58.67;102352.09;4374787;32;8968;-70
2020/12/10 02:43:44;;;;;;;;;14.00;14.00;;;;;1.15;59.28;102349.69;4353144;32;8944;-70
2020/12/10 02:46:40;;;;;;;;;11.67;11.67;;;;;1.30;59.15;102343.81;4372282;32;8903;-70
2020/12/10 02:49:11;;;;;;;;;19.00;19.00;;;;;1.56;58.20;102342.66;4375176;32;8937;-70
2020/12/10 02:51:43;;;;;;;;;14.33;14.33;;;;;1.10;59.24;102344.09;4357232;32;9514;-70
2020/12/10 02:54:10;;;;;;;;;18.00;18.00;;;;;1.14;59.31;102337.09;4346108;33;8901;-70
2020/12/10 02:56:45;;;;;;;;;13.67;13.67;;;;;1.51;58.31;102346.06;4359911;32;8939;-70
2020/12/10 02:59:13;;;;;;;;;14.00;14.00;;;;;1.59;57.87;102345.75;4358553;32;8958;-70
2020/12/10 03:02:06;;;;;;;;;13.33;13.33;;;;;1.28;58.67;102346.78;4359032;32;8904;-70
2020/12/10 03:05:02;;;;;;;;;12.33;12.33;;;;;1.29;58.67;102358.53;4358036;32;9023;-71
2020/12/10 03:07:43;;;;;;;;;5.33;5.33;;;;;1.20;58.81;102360.72;4347234;33;8990;-70
2020/12/10 03:10:12;;;;;;;;;12.67;12.67;;;;;1.05;59.10;102354.81;4358109;32;8937;-70
2020/12/10 03:13:08;;;;;;;;;7.00;7.00;;;;;1.39;58.50;102354.22;4368771;32;8883;-70
2020/12/10 03:15:44;;;;;;;;;16.67;16.33;;;;;1.41;58.15;102347.69;4373553;32;8895;-70
2020/12/10 03:18:11;;;;;;;;;15.33;14.67;;;;;1.47;58.16;102342.16;4373493;32;8922;-70
2020/12/10 03:21:07;;;;;;;;;9.33;9.33;;;;;1.68;57.43;102351.72;4372482;32;8945;-70
2020/12/10 03:24:02;;;;;;;;;4.67;4.67;;;;;1.64;57.45;102351.34;4357703;32;8901;-70
2020/12/10 03:26:46;;;;;;;;;10.00;10.00;;;;;1.37;58.26;102353.59;4358156;32;8982;-70
2020/12/10 03:29:42;;;;;;;;;25.00;25.00;;;;;1.28;58.61;102345.97;4358833;32;9027;-71
2020/12/10 03:32:09;;;;;;;;;21.00;21.00;;;;;1.68;57.43;102347.09;4359695;32;8923;-70
2020/12/10 03:34:39;;;;;;;;;11.33;11.33;;;;;1.58;57.69;102355.00;4360741;32;8895;-70
2020/12/10 03:37:35;;;;;;;;;14.33;14.33;;;;;1.36;58.05;102345.66;4371423;32;8946;-71
2020/12/10 03:40:03;;;;;;;;;12.33;12.33;;;;;1.59;57.78;102345.75;4373368;32;8952;-70
2020/12/10 03:42:59;;;;;;;;;10.67;10.67;;;;;1.63;57.50;102346.97;4358044;32;8893;-70
2020/12/10 03:45:43;;;;;;;;;10.00;10.00;;;;;1.45;58.11;102344.25;4358906;33;8908;-71
2020/12/10 03:48:39;;;;;;;;;11.67;11.33;;;;;1.46;57.95;102343.22;4358029;33;8957;-69
2020/12/10 03:51:34;;;;;;;;;10.33;10.33;;;;;1.78;57.25;102343.00;4359697;32;8929;-70
2020/12/10 03:54:10;;;;;;;;;10.33;10.33;;;;;1.59;57.68;102334.03;4367101;32;8996;-70
2020/12/10 03:56:45;;;;;;;;;13.33;13.33;;;;;1.44;58.13;102334.41;4361406;32;8900;-70
2020/12/10 03:59:14;;;;;;;;;12.33;12.33;;;;;1.45;58.19;102351.59;4369631;32;8968;-70
2020/12/10 04:02:09;;;;;;;;;13.00;12.33;;;;;1.48;57.89;102357.47;4368929;32;8942;-70
2020/12/10 04:05:05;;;;;;;;;12.33;12.33;;;;;1.70;57.39;102351.50;4368919;32;8871;-70
2020/12/10 04:07:36;;;;;;;;;5.33;5.33;;;;;1.84;56.99;102366.59;4372761;32;8944;-70
2020/12/10 04:10:03;;;;;;;;;12.67;12.33;;;;;1.61;57.43;102359.16;4373625;32;8890;-70
2020/12/10 04:12:59;;;;;;;;;12.00;12.00;;;;;1.53;57.76;102354.03;4371824;32;9639;-71
2020/12/10 04:15:34;;;;;;;;;11.00;11.00;;;;;1.79;57.25;102347.38;4373403;32;8914;-70
2020/12/10 04:18:03;;;;;;;;;15.00;14.00;;;;;1.68;57.50;102344.38;4359759;32;8922;-69
2020/12/10 04:20:32;;;;;;;;;10.00;10.00;;;;;1.50;58.20;102349.88;4374097;32;8903;-69
2020/12/10 04:23:28;;;;;;;;;12.67;12.67;;;;;1.25;58.79;102339.09;4374083;32;8946;-69
2020/12/10 04:26:23;;;;;;;;;13.00;13.00;;;;;1.50;58.22;102332.69;4368173;32;8904;-69
2020/12/10 04:29:21;;;;;;;;;12.67;12.67;;;;;1.61;57.95;102342.78;4360971;32;8972;-69
2020/12/10 04:31:50;;;;;;;;;12.67;12.67;;;;;1.67;57.54;102344.59;4348485;33;8935;-69
2020/12/10 04:34:47;;;;;;;;;14.33;13.67;;;;;1.08;59.13;102343.50;4371993;32;8895;-70
2020/12/10 04:37:42;;;;;;;;;9.00;9.00;;;;;1.44;58.41;102355.41;4360244;32;8905;-70
2020/12/10 04:40:28;;;;;;;;;20.33;17.33;;;;;1.77;57.36;102368.63;4363447;32;8875;-70
2020/12/10 04:42:58;;;;;;;;;18.00;16.00;;;;;1.78;57.51;102370.28;4362042;32;8942;-70
2020/12/10 04:46:00;;;;;;;;;19.00;19.00;;;;;1.52;57.93;102368.72;4360068;33;9566;-70
2020/12/10 04:48:42;;;;;;;;;22.33;21.67;;;;;1.57;58.05;102361.53;4360578;32;8993;-70
2020/12/10 04:51:10;;;;;;;;;33.00;30.00;;;;;1.50;58.15;102363.50;4336795;32;8981;-70
2020/12/10 04:53:51;;;;;;;;;15.67;15.67;;;;;1.41;58.66;102362.16;4349125;33;8978;-70
2020/12/10 04:56:20;;;;;;;;;23.33;21.67;;;;;1.58;58.02;102365.91;4361579;32;8967;-72
2020/12/10 04:59:15;;;;;;;;;29.33;27.67;;;;;1.36;58.61;102365.56;4359123;32;8940;-70
2020/12/10 05:01:56;;;;;;;;;25.67;25.00;;;;;1.45;58.58;102357.91;4360947;32;8974;-70
2020/12/10 05:04:53;;;;;;;;;11.67;11.67;;;;;1.25;59.02;102358.16;4359183;32;8935;-70
2020/12/10 05:07:20;;;;;;;;;29.33;26.33;;;;;1.38;58.86;102357.16;4348948;32;8969;-70
2020/12/10 05:10:04;;;;;;;;;18.33;18.33;;;;;1.49;58.67;102356.38;4360521;32;8892;-70
2020/12/10 05:13:08;;;;;;;;;17.33;16.00;;;;;1.54;58.06;102361.16;4359241;33;8975;-70
2020/12/10 05:16:04;;;;;;;;;24.33;16.00;;;;;1.60;58.11;102362.94;4360518;32;8929;-70
2020/12/10 05:19:19;;;;;;;;;16.67;13.67;;;;;1.69;58.19;102356.13;4359604;32;8905;-70
2020/12/10 05:22:05;;;;;;;;;23.67;19.00;;;;;1.32;58.84;102355.34;4375867;32;8875;-70
2020/12/10 05:25:04;;;;;;;;;17.33;17.33;;;;;1.46;58.65;102348.69;4364573;32;8933;-69
2020/12/10 05:28:00;;;;;;;;;21.33;18.00;;;;;1.60;58.61;102357.50;4359727;32;8951;-69
2020/12/10 05:31:16;;;;;;;;;16.33;14.33;;;;;1.51;58.74;102367.06;4360852;32;8955;-70
2020/12/10 05:33:58;;;;;;;;;19.00;17.67;;;;;1.31;59.21;102361.87;4362844;32;8962;-70
2020/12/10 05:36:47;;;;;;;;;7.33;7.00;;;;;1.34;59.46;102359.50;4361067;32;8896;-69
2020/12/10 05:39:58;;;;;;;;;14.33;13.00;;;;;1.27;59.49;102356.03;4359104;33;9582;-70
2020/12/10 05:42:55;;;;;;;;;18.00;18.00;;;;;1.50;59.12;102359.94;4365867;32;8903;-69
2020/12/10 05:45:23;;;;;;;;;14.33;14.33;;;;;1.29;59.36;102356.63;4359931;32;8903;-75
2020/12/10 05:47:58;;;;;;;;;21.00;18.67;;;;;1.24;59.93;102351.03;4357658;32;8916;-74
2020/12/10 05:50:32;;;;;;;;;14.67;14.67;;;;;1.28;59.52;102352.25;4375502;32;8956;-75
2020/12/10 05:53:31;;;;;;;;;13.33;12.67;;;;;1.70;58.63;102349.63;4374799;32;8890;-76
2020/12/10 05:56:03;;;;;;;;;17.00;13.00;;;;;1.34;59.62;102343.16;4375369;32;8886;-76
2020/12/10 05:58:50;;;;;;;;;44.67;35.67;;;;;1.64;58.91;102345.91;4373059;32;8894;-74
2020/12/10 06:01:49;;;;;;;;;16.67;14.67;;;;;1.64;58.98;102343.19;4373781;32;8915;-76
2020/12/10 06:04:46;;;;;;;;;13.33;13.33;;;;;1.66;58.74;102348.41;4363379;32;8904;-75
2020/12/10 06:07:15;;;;;;;;;13.33;12.33;;;;;1.70;58.58;102346.06;4374963;32;9016;-75
2020/12/10 06:10:11;;;;;;;;;13.67;13.67;;;;;1.39;59.75;102351.50;4363555;32;9642;-75
2020/12/10 06:13:07;;;;;;;;;14.33;14.33;;;;;1.55;59.12;102346.47;4374119;32;8985;-75
2020/12/10 06:15:43;;;;;;;;;21.00;19.33;;;;;1.57;59.14;102338.87;4374699;32;8925;-75
2020/12/10 06:18:15;;;;;;;;;17.00;17.00;;;;;1.92;58.40;102337.12;4369227;32;8904;-75
2020/12/10 06:20:59;;;;;;;;;8.00;8.00;;;;;1.76;58.60;102339.66;4359594;32;8986;-76
2020/12/10 06:23:31;;;;;;;;;7.00;5.00;;;;;1.53;59.30;102333.03;4359011;32;8892;-75
2020/12/10 06:26:19;;;;;;;;;18.33;18.33;;;;;1.11;60.48;102322.06;4359227;32;8935;-75
2020/12/10 06:29:27;;;;;;;;;17.33;17.33;;;;;1.21;60.80;102313.31;4358319;32;8956;-74
2020/12/10 06:32:23;;;;;;;;;13.33;13.33;;;;;1.24;60.68;102315.63;4349323;32;8960;-74
2020/12/10 06:34:54;;;;;;;;;19.33;19.33;;;;;1.51;60.04;102320.69;4375452;32;8941;-74
2020/12/10 06:37:28;;;;;;;;;16.00;15.33;;;;;1.53;59.90;102324.84;4360577;32;9548;-75
2020/12/10 06:40:04;;;;;;;;;14.00;14.00;;;;;1.54;59.68;102317.53;4374023;32;9564;-74
2020/12/10 06:43:01;;;;;;;;;13.33;13.33;;;;;1.54;59.64;102301.16;4372997;32;8954;-75
2020/12/10 06:45:57;;;;;;;;;20.67;20.33;;;;;1.62;59.93;102289.94;4363009;32;8891;-74
2020/12/10 06:48:38;;;;;;;;;26.33;22.00;;;;;1.45;60.18;102288.91;4374162;32;8918;-74
2020/12/10 06:51:23;;;;;;;;;22.33;21.67;;;;;1.38;60.55;102299.91;4374672;32;8937;-74
2020/12/10 06:54:20;;;;;;;;;10.00;10.00;;;;;1.40;61.19;102295.06;4364865;32;8893;-74
2020/12/10 06:57:03;;;;;;;;;14.00;13.67;;;;;1.50;60.77;102298.06;4346020;33;8900;-74
2020/12/10 06:59:44;;;;;;;;;14.33;14.33;;;;;1.57;60.83;102308.88;4346098;32;8896;-75
2020/12/10 07:02:40;;;;;;;;;23.33;22.00;;;;;1.61;61.01;102320.97;4348244;33;8898;-75
2020/12/10 07:05:32;;;;;;;;;21.33;21.33;;;;;1.58;61.08;102324.16;4359031;32;8904;-75
2020/12/10 07:08:09;;;;;;;;;16.67;16.67;;;;;1.48;61.71;102322.00;4359887;32;8900;-75
2020/12/10 07:10:55;;;;;;;;;19.67;18.33;;;;;1.52;62.42;102330.53;4347689;33;8916;-75
2020/12/10 07:13:50;;;;;;;;;20.33;16.00;;;;;1.82;61.38;102331.37;4358281;32;8960;-75
2020/12/10 07:16:29;;;;;;;;;19.33;16.67;;;;;1.88;61.16;102340.53;4358580;32;9534;-75
2020/12/10 07:19:24;;;;;;;;;24.33;24.33;;;;;2.03;60.83;102343.66;4357201;33;9589;-75
2020/12/10 07:22:20;;;;;;;;;22.33;21.33;;;;;2.09;60.83;102347.38;4358003;32;8901;-75
2020/12/10 07:25:01;;;;;;;;;23.67;20.00;;;;;2.06;61.06;102359.56;4366417;32;8906;-75
2020/12/10 07:27:30;;;;;;;;;57.33;51.00;;;;;2.21;60.84;102359.94;4360355;32;8927;-75
2020/12/10 07:30:00;;;;;;;;;23.00;20.00;;;;;2.12;60.95;102357.81;4373122;32;8905;-75
2020/12/10 07:32:55;;;;;;;;;40.00;35.33;;;;;1.93;61.65;102366.06;4373283;32;8902;-70
2020/12/10 07:35:31;;;;;;;;;23.33;22.00;;;;;1.76;62.79;102361.47;4373203;32;8902;-74
2020/12/10 07:38:28;;;;;;;;;26.67;24.00;;;;;2.18;61.50;102362.34;4364963;32;8909;-74
2020/12/10 07:41:24;;;;;;;;;22.67;22.00;;;;;2.38;60.92;102360.12;4357913;33;9640;-74
2020/12/10 07:44:07;;;;;;;;;24.33;24.33;;;;;2.17;61.35;102360.66;4359917;32;8950;-74
2020/12/10 07:46:36;;;;;;;;;23.33;23.33;;;;;2.51;60.39;102368.06;4349151;32;8889;-74
2020/12/10 07:49:32;;;;;;;;;16.67;16.67;;;;;2.29;60.96;102368.87;4387449;32;8940;-74
2020/12/10 07:52:12;;;;;;;;;16.33;16.33;;;;;2.37;60.54;102361.16;4388660;32;8904;-74
2020/12/10 07:55:16;;;;;;;;;19.67;19.67;;;;;2.38;60.57;102362.03;4362661;32;8932;-74
2020/12/10 07:58:34;;;;;;;;;27.67;23.67;;;;;2.60;60.00;102362.25;4369768;32;8922;-74
2020/12/10 08:01:37;;;;;;;;;21.33;17.67;;;;;2.54;60.09;102355.03;4375440;32;8907;-74
2020/12/10 08:04:34;;;;;;;;;23.00;21.33;;;;;2.63;59.76;102364.53;4375209;32;9069;-74
2020/12/10 08:07:31;;;;;;;;;18.00;18.00;;;;;2.82;59.28;102357.88;4361086;32;8958;-74
2020/12/10 08:10:06;;;;;;;;;26.33;26.00;;;;;2.77;59.15;102352.31;4351166;32;8942;-74
2020/12/10 08:13:20;;;;;;;;;27.67;26.00;;;;;2.53;59.69;102345.16;4360551;32;8909;-74
2020/12/10 08:16:15;;;;;;;;;30.00;27.00;;;;;2.69;59.50;102344.47;4360537;32;8924;-73
2020/12/10 08:19:26;;;;;;;;;26.00;26.00;;;;;2.88;58.92;102345.97;4360950;32;8909;-74
2020/12/10 08:22:14;;;;;;;;;30.00;28.33;;;;;2.70;59.46;102344.22;4359963;32;8890;-74
2020/12/10 08:25:16;;;;;;;;;29.00;28.33;;;;;2.70;59.56;102338.75;4374937;32;9617;-73
2020/12/10 08:28:13;;;;;;;;;20.00;18.33;;;;;2.90;58.86;102343.84;4371255;32;8931;-73
2020/12/10 08:31:19;;;;;;;;;23.67;23.00;;;;;2.55;60.09;102335.66;4359797;33;8995;-72
2020/12/10 08:33:46;;;;;;;;;38.33;35.33;;;;;2.56;60.30;102322.84;4369236;32;8933;-73
2020/12/10 08:36:43;;;;;;;;;39.00;38.00;;;;;2.94;59.23;102334.09;4373464;32;8962;-74
2020/12/10 08:39:11;;;;;;;;;40.33;39.33;;;;;3.03;59.23;102331.81;4376086;32;8902;-74
2020/12/10 08:41:41;;;;;;;;;57.00;49.67;;;;;2.73;60.07;102323.78;4375595;32;8914;-73
2020/12/10 08:44:14;;;;;;;;;30.33;28.33;;;;;2.93;59.43;102318.78;4350043;32;8908;-73
2020/12/10 08:47:11;;;;;;;;;51.67;46.00;;;;;2.73;59.98;102313.69;4349798;33;8948;-73
2020/12/10 08:49:39;;;;;;;;;27.00;26.33;;;;;2.82;60.27;102305.94;4347868;33;8885;-73
2020/12/10 08:52:34;;;;;;;;;30.67;27.67;;;;;2.55;61.16;102294.69;4359583;33;8902;-74
2020/12/10 08:55:06;;;;;;;;;21.33;21.00;;;;;2.77;60.82;102284.00;4360866;32;8930;-73
2020/12/10 08:57:57;;;;;;;;;26.33;24.00;;;;;3.03;60.28;102288.91;4360286;32;8974;-73
2020/12/10 09:00:55;;;;;;;;;25.00;25.00;;;;;3.18;59.95;102284.84;4359286;33;8974;-72
2020/12/10 09:03:51;;;;;;;;;34.67;31.67;;;;;3.26;59.81;102296.22;4360212;32;9056;-73
2020/12/10 09:06:47;;;;;;;;;41.33;39.67;;;;;3.30;59.81;102296.59;4345519;32;8907;-74
2020/12/10 09:09:17;;;;;;;;;28.33;28.33;;;;;3.16;60.48;102300.66;4372538;32;8862;-74
2020/12/10 09:11:55;;;;;;;;;29.00;28.00;;;;;3.01;61.05;102306.62;4365018;32;9578;-74
2020/12/10 09:14:22;;;;;;;;;48.00;45.00;;;;;3.37;60.34;102297.25;4375032;32;8945;-74
2020/12/10 09:17:04;;;;;;;;;11.33;10.33;;;;;3.44;59.99;102295.19;4363646;32;8905;-74
2020/12/10 09:19:33;;;;;;;;;53.00;42.33;;;;;3.05;61.47;102285.94;4356690;32;8964;-74
2020/12/10 09:22:03;;;;;;;;;38.00;35.67;;;;;3.18;61.45;102284.84;4371904;32;8884;-74
2020/12/10 09:24:32;;;;;;;;;39.00;33.33;;;;;3.23;61.19;102290.41;4344339;32;9561;-74
2020/12/10 09:27:30;;;;;;;;;33.00;32.00;;;;;3.18;61.73;102298.50;4374281;32;8899;-74
2020/12/10 09:30:13;;;;;;;;;34.00;29.33;;;;;3.58;60.58;102299.31;4362702;32;9027;-72
2020/12/10 09:32:49;;;;;;;;;30.33;30.00;;;;;3.77;60.16;102304.59;4372918;32;8880;-75
2020/12/10 09:35:17;;;;;;;;;31.00;29.00;;;;;3.92;59.69;102310.34;4357515;32;8890;-74
2020/12/10 09:37:44;;;;;;;;;22.00;22.00;;;;;3.97;59.45;102299.44;4373588;32;8937;-75
2020/12/10 09:40:14;;;;;;;;;30.33;28.00;;;;;3.99;59.42;102288.25;4352040;32;12392;-75
2020/12/10 09:43:11;;;;;;;;;22.00;22.00;;;;;4.11;59.28;102289.00;4365172;32;12372;-75
2020/12/10 09:46:12;;;;;;;;;26.00;26.00;;;;;4.31;58.93;102278.41;4372847;32;12389;-74
2020/12/10 09:49:08;;;;;;;;;15.33;15.33;;;;;4.05;59.84;102281.78;4358647;33;12355;-74
2020/12/10 09:52:05;;;;;;;;;27.25;25.50;;;;;4.29;59.41;102264.09;4360477;32;12348;-73
2020/12/10 09:54:59;;;;;;;;;30.00;29.00;;;;;4.08;60.26;102260.22;4360139;32;12396;-73
2020/12/10 09:57:34;;;;;;;;;49.00;44.67;;;;;3.91;60.96;102256.66;4374300;32;12389;-75
2020/12/10 10:00:10;;;;;;;;;40.25;36.75;;;;;4.07;60.87;102258.56;4359460;32;8915;-74
2020/12/10 10:03:06;;;;;;;;;35.25;33.00;;;;;4.21;60.54;102258.22;4362164;32;12493;-75
2020/12/10 10:06:12;;;;;;;;;23.25;23.25;;;;;4.39;60.40;102260.69;4369320;32;12352;-73
2020/12/10 10:08:42;;;;;;;;;28.75;27.25;;;;;4.66;60.17;102269.84;4345409;32;12375;-74
2020/12/10 10:11:41;;;;;;;;;25.75;25.75;;;;;4.32;61.74;102249.09;4358136;32;12396;-74
2020/12/10 10:14:37;;;;;;;;;32.00;26.25;;;;;4.61;61.06;102255.28;4357969;32;12414;-74
2020/12/10 10:17:33;;;;;;;;;24.50;20.50;;;;;4.79;60.54;102260.44;4355376;32;12376;-75
2020/12/10 10:20:11;;;;;;;;;20.75;19.50;;;;;4.49;61.33;102260.03;4351581;32;12366;-74
2020/12/10 10:23:10;;;;;;;;;23.50;23.50;;;;;4.66;61.10;102253.41;4373414;32;12334;-74
2020/12/10 10:26:09;;;;;;;;;26.00;24.75;;;;;4.77;60.84;102243.44;4365915;32;12561;-73
2020/12/10 10:28:47;;;;;;;;;19.25;17.50;;;;;4.47;61.87;102252.88;4371745;32;12351;-74
2020/12/10 10:31:30;;;;;;;;;28.00;27.00;;;;;4.51;61.77;102241.41;4360807;32;12397;-75
2020/12/10 10:34:25;;;;;;;;;26.00;25.00;;;;;4.59;61.74;102252.75;4358270;32;12358;-73
2020/12/10 10:37:21;;;;;;;;;29.25;26.00;;;;;4.62;61.86;102251.44;4359794;32;12375;-75
2020/12/10 10:40:18;;;;;;;;;34.50;33.00;;;;;4.59;61.81;102236.31;4371483;32;12407;-74
2020/12/10 10:43:14;;;;;;;;;20.75;20.75;;;;;4.51;62.41;102225.78;4348166;32;12391;-74
2020/12/10 10:45:55;;;;;;;;;31.25;29.00;;;;;4.63;62.16;102231.19;4359369;32;12541;-73
2020/12/10 10:48:45;;;;;;;;;29.75;28.25;;;;;4.79;61.69;102226.72;4359234;32;12353;-74
2020/12/10 10:51:27;;;;;;;;;23.50;20.00;;;;;4.51;62.41;102228.53;4367252;32;12400;-74
2020/12/10 10:53:58;;;;;;;;;34.75;32.00;;;;;4.82;61.29;102229.75;4373864;32;12311;-74
2020/12/10 10:56:25;;;;;;;;;27.50;26.25;;;;;4.88;61.63;102233.41;4373278;32;12401;-73
2020/12/10 10:58:55;;;;;;;;;21.75;21.75;;;;;4.71;62.10;102242.53;4363621;32;12413;-74
2020/12/10 11:01:54;;;;;;;;;25.00;23.00;;;;;4.84;61.64;102233.09;4371172;32;12383;-74
2020/12/10 11:04:53;;;;;;;;;21.00;21.00;;;;;4.93;61.63;102230.75;4366862;32;12342;-73
2020/12/10 11:07:36;;;;;;;;;20.50;20.50;;;;;4.97;61.28;102234.63;4358404;32;12340;-74
2020/12/10 11:10:22;;;;;;;;;23.25;22.00;;;;;5.12;60.78;102232.06;4363840;32;12376;-74
2020/12/10 11:12:50;;;;;;;;;30.75;30.75;;;;;4.92;61.25;102237.31;4360918;32;12465;-73
2020/12/10 11:15:18;;;;;;;;;28.75;25.75;;;;;4.72;61.78;102237.88;4359605;32;12391;-73
2020/12/10 11:17:46;;;;;;;;;30.75;29.75;;;;;5.06;61.02;102227.63;4368468;32;12386;-75
2020/12/10 11:20:41;;;;;;;;;25.00;24.00;;;;;5.23;60.25;102225.59;4359024;32;12341;-74
2020/12/10 11:23:23;;;;;;;;;26.50;25.50;;;;;5.02;60.35;102220.97;4358724;32;12396;-72
2020/12/10 11:25:50;;;;;;;;;31.00;29.00;;;;;5.01;60.51;102216.59;4360028;32;12352;-75
2020/12/10 11:28:33;;;;;;;;;31.50;30.00;;;;;5.17;59.89;102201.12;4366637;32;12378;-73
2020/12/10 11:31:00;;;;;;;;;32.00;27.75;;;;;5.22;59.83;102201.19;4357847;32;12440;-73
2020/12/10 11:33:55;;;;;;;;;24.50;23.25;;;;;5.22;59.46;102202.00;4363122;32;12387;-73
2020/12/10 11:36:51;;;;;;;;;23.75;23.00;;;;;5.47;58.91;102208.84;4372511;32;12403;-71
2020/12/10 11:39:18;;;;;;;;;21.75;21.00;;;;;5.44;58.66;102203.84;4370829;32;12330;-73
2020/12/10 11:42:09;;;;;;;;;23.75;23.75;;;;;5.40;58.79;102203.56;4359326;32;12336;-74
2020/12/10 11:45:07;;;;;;;;;26.25;23.75;;;;;5.39;59.00;102198.34;4357154;32;12385;-74
2020/12/10 11:47:36;;;;;;;;;26.50;26.50;;;;;5.49;58.77;102209.41;4345708;33;13043;-73
2020/12/10 11:50:34;;;;;;;;;21.00;20.50;;;;;5.39;59.15;102212.87;4368687;32;13226;-74
2020/12/10 11:53:33;;;;;;;;;23.50;23.50;;;;;5.54;58.54;102229.50;4362473;32;12459;-73
2020/12/10 11:56:04;;;;;;;;;27.25;27.25;;;;;5.59;58.45;102228.69;4359329;33;12338;-74
2020/12/10 11:59:00;;;;;;;;;51.25;35.25;;;;;5.63;58.62;102237.25;4361692;32;12452;-74
2020/12/10 12:01:55;;;;;;;;;21.00;20.25;;;;;5.74;58.14;102242.56;4369772;32;12564;-74
2020/12/10 12:04:27;;;;;;;;;23.50;23.50;;;;;5.64;58.40;102239.75;4373105;32;12322;-73
2020/12/10 12:07:31;;;;;;;;;20.75;20.50;;;;;5.46;58.61;102240.13;4371653;32;12346;-74
2020/12/10 12:10:26;;;;;;;;;25.00;24.50;;;;;5.77;57.79;102243.97;4360556;32;12384;-75
2020/12/10 12:13:22;;;;;;;;;26.25;24.75;;;;;5.70;57.70;102241.44;4368934;32;12434;-74
2020/12/10 12:15:55;;;;;;;;;37.25;35.75;;;;;5.72;57.62;102255.75;4356571;32;13101;-74
2020/12/10 12:18:51;;;;;;;;;28.00;27.00;;;;;5.82;57.27;102249.50;4359070;32;12426;-74
2020/12/10 12:21:23;;;;;;;;;32.75;31.75;;;;;5.81;57.33;102251.41;4344197;32;12366;-73
2020/12/10 12:24:19;;;;;;;;;38.00;33.00;;;;;5.96;57.04;102255.44;4358716;32;12335;-73
2020/12/10 12:27:14;;;;;;;;;25.50;25.50;;;;;5.84;57.27;102261.91;4369721;32;12357;-73
2020/12/10 12:29:56;;;;;;;;;26.00;25.00;;;;;5.72;57.80;102254.91;4363108;32;12329;-74
2020/12/10 12:32:53;;;;;;;;;24.75;23.75;;;;;5.77;57.59;102249.47;4357425;32;12358;-75
2020/12/10 12:35:50;;;;;;;;;26.50;26.50;;;;;5.83;57.41;102249.25;4358381;32;12431;-73
2020/12/10 12:38:35;;;;;;;;;24.75;24.50;;;;;5.77;57.43;102250.31;4372314;32;12392;-73
2020/12/10 12:41:34;;;;;;;;;43.50;37.25;;;;;5.77;57.50;102249.47;4372184;32;12417;-74
2020/12/10 12:44:29;;;;;;;;;26.25;24.00;;;;;5.56;58.13;102240.22;4359935;32;12365;-72
2020/12/10 12:47:25;;;;;;;;;31.75;28.25;;;;;5.36;58.86;102234.50;4360075;32;12389;-73